Time;durP1;ratioP1;P1;durP2;ratioP2;P2;SDS_P1;SDS_P2;PMS_P1;PMS_P2;Temp;Humidity;BMP_temperature;BMP_pressure;BME280_temperature;BME280_humidity;BME280_pressure;Samples;Min_cycle;Max_cycle;Signal;HPM_P1;HPM_P2
2021/03/14 00:00:17;;;;;;;3.03;2.20;;;5.10;97.30;;;;;;4978325;28;20960;-85
2021/03/14 00:02:42;;;;;;;3.27;1.90;;;5.10;97.30;;;;;;4978341;28;20603;-84
2021/03/14 00:05:08;;;;;;;3.67;2.30;;;5.10;97.30;;;;;;4995502;28;20452;-85
2021/03/14 00:07:34;;;;;;;6.30;2.23;;;5.10;97.30;;;;;;4977998;28;20205;-85
2021/03/14 00:10:00;;;;;;;8.97;2.57;;;5.00;97.30;;;;;;4995443;28;20498;-84
2021/03/14 00:12:25;;;;;;;4.03;2.23;;;5.00;97.30;;;;;;4981246;28;20204;-84
2021/03/14 00:14:51;;;;;;;6.10;2.27;;;5.00;97.30;;;;;;4981291;28;20180;-85
2021/03/14 00:17:17;;;;;;;9.07;2.10;;;5.00;97.30;;;;;;4998660;28;20194;-85
2021/03/14 00:19:42;;;;;;;4.60;1.83;;;5.00;97.30;;;;;;4982333;28;20197;-85
2021/03/14 00:22:08;;;;;;;2.63;2.00;;;5.00;97.30;;;;;;4982908;28;20182;-85
2021/03/14 00:24:33;;;;;;;3.50;2.53;;;5.10;97.30;;;;;;4982564;28;20174;-85
2021/03/14 00:26:59;;;;;;;3.93;1.93;;;5.10;97.30;;;;;;5000030;28;20177;-85
2021/03/14 00:29:25;;;;;;;5.67;1.80;;;5.00;97.30;;;;;;4982907;28;20174;-84
2021/03/14 00:31:50;;;;;;;7.20;2.10;;;5.00;97.30;;;;;;4989743;28;20762;-86
2021/03/14 00:34:16;;;;;;;3.00;2.30;;;5.00;97.30;;;;;;4997811;28;20216;-85
2021/03/14 00:36:42;;;;;;;4.40;2.10;;;5.10;97.30;;;;;;4998543;28;20182;-84
2021/03/14 00:39:07;;;;;;;5.93;1.90;;;5.00;97.30;;;;;;4998663;28;20236;-85
2021/03/14 00:41:33;;;;;;;4.93;2.73;;;5.00;97.30;;;;;;4998212;28;20653;-85
2021/03/14 00:43:59;;;;;;;5.63;1.70;;;5.00;97.30;;;;;;4999451;28;20178;-86
2021/03/14 00:46:28;;;;;;;3.10;1.80;;;5.00;97.30;;;;;;4998408;28;20190;-85
2021/03/14 00:48:54;;;;;;;1.60;1.47;;;5.00;97.30;;;;;;4998889;28;20198;-84
2021/03/14 00:51:19;;;;;;;4.10;2.20;;;5.10;97.30;;;;;;4998605;28;20833;-85
2021/03/14 00:53:45;;;;;;;5.40;2.03;;;5.10;97.30;;;;;;4998715;28;20389;-85
2021/03/14 00:56:11;;;;;;;8.90;2.13;;;5.10;97.30;;;;;;4997300;28;20178;-85
2021/03/14 00:58:36;;;;;;;3.33;1.90;;;5.00;97.30;;;;;;4986118;28;20808;-85
2021/03/14 01:01:02;;;;;;;6.73;2.00;;;5.00;97.30;;;;;;4971034;28;20606;-85
2021/03/14 01:03:27;;;;;;;1.83;1.80;;;5.00;97.30;;;;;;4975398;28;20186;-84
2021/03/14 01:05:53;;;;;;;4.80;1.90;;;5.00;97.30;;;;;;4976350;28;20179;-85
2021/03/14 01:08:19;;;;;;;7.23;2.50;;;5.00;97.30;;;;;;4975280;28;20681;-86
2021/03/14 01:10:45;;;;;;;5.40;2.60;;;5.00;97.30;;;;;;4975798;28;20214;-85
2021/03/14 01:13:11;;;;;;;5.23;3.10;;;5.00;97.30;;;;;;4974918;28;20178;-86
2021/03/14 01:15:36;;;;;;;7.13;2.10;;;5.00;97.30;;;;;;4974942;28;20418;-86
2021/03/14 01:18:04;;;;;;;5.87;2.33;;;4.90;97.30;;;;;;4975347;28;20198;-85
2021/03/14 01:20:29;;;;;;;8.37;3.60;;;5.00;97.30;;;;;;4976791;28;20238;-86
2021/03/14 01:22:55;;;;;;;5.17;2.17;;;5.00;97.30;;;;;;4974434;28;20417;-86
2021/03/14 01:25:21;;;;;;;6.73;2.93;;;5.00;97.30;;;;;;4976317;28;20178;-85
2021/03/14 01:27:46;;;;;;;6.63;2.30;;;5.00;97.30;;;;;;4974865;28;20194;-85
2021/03/14 01:30:15;;;;;;;4.93;1.90;;;5.00;97.30;;;;;;4974344;28;20677;-85
2021/03/14 01:32:40;;;;;;;5.70;2.40;;;5.00;97.30;;;;;;4975016;28;20222;-85
2021/03/14 01:35:07;;;;;;;6.70;2.87;;;5.00;97.30;;;;;;4976078;28;21055;-86
2021/03/14 01:37:32;;;;;;;5.60;2.10;;;5.10;97.30;;;;;;4976296;28;20445;-85
2021/03/14 01:39:58;;;;;;;14.53;2.67;;;5.10;97.30;;;;;;4975740;28;20414;-85
2021/03/14 01:42:25;;;;;;;2.60;1.77;;;5.10;97.30;;;;;;4975101;28;20880;-84
2021/03/14 01:44:51;;;;;;;11.50;2.63;;;5.10;97.30;;;;;;4975894;28;20179;-85
2021/03/14 01:47:17;;;;;;;7.13;2.57;;;5.10;97.30;;;;;;4986358;28;20448;-85
2021/03/14 01:49:43;;;;;;;3.47;2.37;;;5.10;97.30;;;;;;4994215;28;20409;-85
2021/03/14 01:52:09;;;;;;;4.90;2.23;;;5.10;97.30;;;;;;4995108;28;20641;-83
2021/03/14 01:54:35;;;;;;;3.50;2.20;;;5.00;97.30;;;;;;4995543;28;20421;-84
2021/03/14 01:57:01;;;;;;;8.43;2.80;;;5.00;97.30;;;;;;4999773;28;20186;-85
2021/03/14 01:59:27;;;;;;;4.53;2.43;;;5.00;97.30;;;;;;5013267;28;20537;-86
2021/03/14 02:01:54;;;;;;;3.60;2.50;;;5.00;97.30;;;;;;5013605;28;20193;-87
2021/03/14 02:04:19;;;;;;;6.50;2.57;;;5.00;97.30;;;;;;5012279;28;20405;-85
2021/03/14 02:06:45;;;;;;;7.53;2.77;;;5.00;97.30;;;;;;4995949;28;20468;-85
2021/03/14 02:09:10;;;;;;;6.30;2.40;;;5.00;97.30;;;;;;4994280;28;20187;-85
2021/03/14 02:11:40;;;;;;;5.10;1.90;;;5.10;97.30;;;;;;4996059;28;20214;-85
2021/03/14 02:14:07;;;;;;;3.37;2.00;;;5.00;97.30;;;;;;4994935;28;20186;-85
2021/03/14 02:16:38;;;;;;;4.33;2.10;;;5.00;97.30;;;;;;4995630;28;20432;-85
2021/03/14 02:19:08;;;;;;;6.93;2.07;;;5.10;97.30;;;;;;4995839;28;20443;-84
2021/03/14 02:21:35;;;;;;;7.67;2.43;;;5.10;97.30;;;;;;4996609;28;20425;-85
2021/03/14 02:24:24;;;;;;;3.43;2.30;;;5.10;97.30;;;;;;4997630;28;20417;-85
2021/03/14 02:27:09;;;;;;;5.90;2.57;;;5.00;97.30;;;;;;4996995;28;20424;-85
2021/03/14 02:29:35;;;;;;;6.07;2.50;;;5.00;97.30;;;;;;4995937;28;20789;-85
2021/03/14 02:32:04;;;;;;;6.67;2.60;;;5.00;97.30;;;;;;4996821;28;20487;-84
2021/03/14 02:34:35;;;;;;;6.73;2.67;;;5.10;97.30;;;;;;4996085;28;20425;-84
2021/03/14 02:37:05;;;;;;;6.10;2.10;;;5.00;97.30;;;;;;4997877;28;20403;-85
2021/03/14 02:39:34;;;;;;;5.10;2.23;;;5.10;97.30;;;;;;4997112;28;20568;-84
2021/03/14 02:42:00;;;;;;;3.73;2.10;;;5.10;97.30;;;;;;4996752;28;20421;-85
2021/03/14 02:44:31;;;;;;;3.57;1.90;;;5.00;97.30;;;;;;4996292;28;20429;-85
2021/03/14 02:46:58;;;;;;;6.07;1.80;;;5.00;97.30;;;;;;4996920;28;20818;-85
2021/03/14 02:49:24;;;;;;;3.60;2.43;;;5.00;97.30;;;;;;4998220;28;20421;-85
2021/03/14 02:51:50;;;;;;;5.97;2.50;;;5.00;97.30;;;;;;4997797;28;20465;-84
2021/03/14 02:54:20;;;;;;;4.97;2.37;;;5.00;97.30;;;;;;4997094;28;20425;-85
2021/03/14 02:56:48;;;;;;;9.20;2.40;;;5.00;97.30;;;;;;4996480;28;20418;-86
2021/03/14 02:59:19;;;;;;;3.87;2.20;;;4.90;97.30;;;;;;4996942;28;20793;-84
2021/03/14 03:01:46;;;;;;;3.10;2.00;;;4.90;97.30;;;;;;4996463;28;20461;-85
2021/03/14 03:04:16;;;;;;;5.30;2.23;;;4.90;97.30;;;;;;4997037;28;20420;-85
2021/03/14 03:06:42;;;;;;;4.73;2.30;;;4.80;97.30;;;;;;4997244;28;20897;-85
2021/03/14 03:09:10;;;;;;;3.63;2.20;;;4.80;97.30;;;;;;4997064;28;20441;-84
2021/03/14 03:11:36;;;;;;;4.47;2.30;;;4.80;97.30;;;;;;4996734;28;20468;-86
2021/03/14 03:14:02;;;;;;;8.63;2.33;;;4.80;97.30;;;;;;4996736;28;20444;-85
2021/03/14 03:27:17;;;;;;;5.23;2.43;;;4.80;97.30;;;;;;5135340;27;20568;-85
2021/03/14 03:29:43;;;;;;;2.63;2.47;;;4.70;97.30;;;;;;5075330;28;20425;-84
2021/03/14 03:32:08;;;;;;;5.53;2.33;;;4.60;97.30;;;;;;5075906;28;20177;-84
2021/03/14 03:34:34;;;;;;;6.83;2.00;;;4.60;97.30;;;;;;5077059;28;20277;-83
2021/03/14 03:37:00;;;;;;;3.77;2.30;;;4.60;97.30;;;;;;5109948;22;20255;-80
2021/03/14 03:39:25;;;;;;;3.07;2.03;;;4.60;97.30;;;;;;5115356;28;20557;-81
2021/03/14 03:42:00;;;;;;;4.13;2.17;;;4.60;97.30;;;;;;5097784;28;20174;-80
2021/03/14 03:44:27;;;;;;;5.07;2.57;;;4.50;97.30;;;;;;5096853;28;20238;-81
2021/03/14 03:46:57;;;;;;;2.73;2.33;;;4.60;97.30;;;;;;5097421;28;20458;-81
2021/03/14 03:49:27;;;;;;;6.40;2.63;;;4.60;97.30;;;;;;5094491;28;20453;-80
2021/03/14 03:51:53;;;;;;;5.83;2.50;;;4.50;97.30;;;;;;5096569;28;20464;-81
2021/03/14 03:54:19;;;;;;;2.90;2.20;;;4.50;97.30;;;;;;5115602;28;20472;-81
2021/03/14 03:56:46;;;;;;;7.63;2.37;;;4.40;97.30;;;;;;5096004;28;20531;-81
2021/03/14 03:59:13;;;;;;;8.40;2.33;;;4.50;97.30;;;;;;5096921;28;20477;-80
2021/03/14 04:01:41;;;;;;;2.60;2.10;;;4.50;97.30;;;;;;5097232;28;20506;-80
2021/03/14 04:04:08;;;;;;;2.60;2.30;;;4.50;97.30;;;;;;5097099;28;20412;-81
2021/03/14 04:06:35;;;;;;;2.30;1.80;;;4.50;97.30;;;;;;5098210;28;20446;-81
2021/03/14 04:09:01;;;;;;;7.37;2.57;;;4.40;97.30;;;;;;5097077;28;20472;-80
2021/03/14 04:11:28;;;;;;;7.13;3.13;;;4.40;97.30;;;;;;5096841;28;20416;-81
2021/03/14 04:13:55;;;;;;;3.23;2.03;;;4.40;97.30;;;;;;5097460;28;20448;-81
2021/03/14 04:16:23;;;;;;;7.93;2.20;;;4.40;97.30;;;;;;5097247;28;20817;-81
2021/03/14 04:18:51;;;;;;;2.80;2.20;;;4.40;97.30;;;;;;5098027;28;20419;-80
2021/03/14 04:21:18;;;;;;;11.00;2.20;;;4.30;97.30;;;;;;5115654;28;20498;-81
2021/03/14 04:23:47;;;;;;;6.80;2.27;;;4.30;97.30;;;;;;5097843;28;20923;-80
2021/03/14 04:26:15;;;;;;;2.60;2.20;;;4.30;97.30;;;;;;5113381;28;20405;-80
2021/03/14 04:28:43;;;;;;;2.23;1.87;;;4.30;97.30;;;;;;5084549;28;20424;-80
2021/03/14 04:31:09;;;;;;;5.00;2.10;;;4.30;97.30;;;;;;5084361;28;20439;-80
2021/03/14 04:33:36;;;;;;;3.40;2.37;;;4.30;97.30;;;;;;5084489;28;20428;-81
2021/03/14 04:36:03;;;;;;;6.60;2.33;;;4.30;97.30;;;;;;5083008;28;20460;-80
2021/03/14 04:38:31;;;;;;;4.70;1.87;;;4.20;97.30;;;;;;5084333;28;20596;-80
2021/03/14 04:40:57;;;;;;;3.00;2.10;;;4.30;97.30;;;;;;5084508;28;20431;-81
2021/03/14 04:43:25;;;;;;;2.60;2.23;;;4.20;97.30;;;;;;5085191;28;20417;-81
2021/03/14 04:45:51;;;;;;;2.90;2.03;;;4.20;97.30;;;;;;5082697;28;20892;-80
2021/03/14 04:48:19;;;;;;;6.10;2.90;;;4.20;97.30;;;;;;5082595;28;20448;-80
2021/03/14 04:50:46;;;;;;;4.53;2.50;;;4.20;97.30;;;;;;5100969;28;20416;-81
2021/03/14 04:53:13;;;;;;;3.70;2.30;;;4.20;97.30;;;;;;5100118;28;20760;-82
2021/03/14 04:55:40;;;;;;;2.63;2.23;;;4.30;97.30;;;;;;5082296;28;20459;-81
2021/03/14 04:58:08;;;;;;;3.20;2.40;;;4.20;97.30;;;;;;5099633;28;20419;-80
2021/03/14 05:00:35;;;;;;;5.67;2.20;;;4.20;97.30;;;;;;5101084;28;20416;-80
2021/03/14 05:03:01;;;;;;;4.47;2.73;;;4.20;97.30;;;;;;5082379;28;20708;-81
2021/03/14 05:05:27;;;;;;;2.93;2.60;;;4.20;97.30;;;;;;5101441;28;20503;-80
2021/03/14 05:07:54;;;;;;;2.33;2.13;;;4.20;97.30;;;;;;5102707;28;20493;-80
2021/03/14 05:10:22;;;;;;;5.60;2.70;;;4.20;97.30;;;;;;5083495;28;20416;-80
2021/03/14 05:12:49;;;;;;;6.20;2.80;;;4.20;97.30;;;;;;5083182;28;20491;-81
2021/03/14 05:15:18;;;;;;;3.10;2.50;;;4.20;97.30;;;;;;5082451;28;20471;-81
2021/03/14 05:17:46;;;;;;;3.80;2.73;;;4.20;97.30;;;;;;5082531;28;21160;-81
2021/03/14 05:20:20;;;;;;;3.30;2.80;;;4.20;97.30;;;;;;5081986;28;20408;-80
2021/03/14 05:22:47;;;;;;;3.70;3.13;;;4.20;97.30;;;;;;5081575;28;20404;-80
2021/03/14 05:25:18;;;;;;;3.00;2.53;;;4.20;97.30;;;;;;5082366;28;20405;-80
2021/03/14 05:27:49;;;;;;;6.13;3.00;;;4.20;97.30;;;;;;5081514;28;20509;-81
2021/03/14 05:30:27;;;;;;;4.53;2.90;;;4.20;97.30;;;;;;5082540;28;20445;-81
2021/03/14 05:32:55;;;;;;;4.30;2.80;;;4.20;97.30;;;;;;5082517;28;20413;-80
2021/03/14 05:35:23;;;;;;;5.03;2.90;;;4.30;97.30;;;;;;5100756;28;20528;-80
2021/03/14 05:37:49;;;;;;;8.47;3.17;;;4.30;97.30;;;;;;5080356;28;21320;-81
2021/03/14 05:40:18;;;;;;;3.20;2.70;;;4.20;97.30;;;;;;5098028;28;20411;-81
2021/03/14 05:42:43;;;;;;;5.10;3.40;;;4.30;97.30;;;;;;5080949;28;20171;-80
2021/03/14 05:45:10;;;;;;;3.73;2.97;;;4.30;97.30;;;;;;5098966;28;20420;-81
2021/03/14 05:47:37;;;;;;;6.10;3.13;;;4.30;97.30;;;;;;5080957;28;20311;-80
2021/03/14 05:50:07;;;;;;;4.60;3.30;;;4.30;97.30;;;;;;5081234;28;20420;-81
2021/03/14 05:52:32;;;;;;;4.90;3.50;;;4.30;97.30;;;;;;5081748;28;20477;-81
2021/03/14 05:54:59;;;;;;;5.97;3.70;;;4.30;97.30;;;;;;5082167;28;20480;-81
2021/03/14 05:57:24;;;;;;;8.30;4.10;;;4.40;97.30;;;;;;5082965;28;20194;-81
2021/03/14 05:59:52;;;;;;;5.33;3.23;;;4.40;97.30;;;;;;5082639;28;20994;-81
2021/03/14 06:02:18;;;;;;;6.90;3.93;;;4.40;97.30;;;;;;5079293;28;20178;-81
2021/03/14 06:04:46;;;;;;;7.43;3.80;;;4.50;97.30;;;;;;5081240;28;20428;-80
2021/03/14 06:07:14;;;;;;;4.30;3.57;;;4.50;97.30;;;;;;5077205;28;20461;-81
2021/03/14 06:09:41;;;;;;;5.10;3.60;;;4.50;97.30;;;;;;5061554;28;21004;-81
2021/03/14 06:12:13;;;;;;;5.57;3.70;;;4.50;97.30;;;;;;5059547;28;20462;-81
2021/03/14 06:14:39;;;;;;;5.67;3.57;;;4.60;97.30;;;;;;5059680;28;20483;-81
2021/03/14 06:17:05;;;;;;;4.80;3.47;;;4.60;97.30;;;;;;5059405;28;20468;-81
2021/03/14 06:19:31;;;;;;;9.07;4.10;;;4.60;97.30;;;;;;5076942;28;20406;-82
2021/03/14 06:22:21;;;;;;;7.87;4.57;;;4.70;97.30;;;;;;5059716;28;20179;-81
2021/03/14 06:24:48;;;;;;;5.67;3.10;;;4.70;97.30;;;;;;5067327;28;20199;-81
2021/03/14 06:27:29;;;;;;;4.60;3.30;;;4.70;97.30;;;;;;5061231;28;20972;-80
2021/03/14 06:29:55;;;;;;;6.07;3.87;;;4.70;97.30;;;;;;5060273;28;20417;-82
2021/03/14 06:32:21;;;;;;;4.83;3.97;;;4.80;97.30;;;;;;5060335;28;20401;-80
2021/03/14 06:34:46;;;;;;;6.77;3.77;;;4.80;97.30;;;;;;5060381;28;20483;-81
2021/03/14 06:37:15;;;;;;;6.40;4.10;;;4.80;97.30;;;;;;5061003;28;20234;-81
2021/03/14 06:39:49;;;;;;;7.00;4.70;;;4.90;97.30;;;;;;5059860;28;20626;-81
2021/03/14 06:42:34;;;;;;;7.90;4.00;;;4.90;97.30;;;;;;5059022;28;20417;-81
2021/03/14 06:45:03;;;;;;;6.13;4.33;;;4.90;97.30;;;;;;5060320;28;20470;-81
2021/03/14 06:47:46;;;;;;;12.50;4.80;;;4.90;97.30;;;;;;5072842;28;20502;-81
2021/03/14 06:50:27;;;;;;;6.20;4.03;;;5.00;97.30;;;;;;5079693;28;20443;-81
2021/03/14 06:53:23;;;;;;;5.70;3.60;;;5.00;97.30;;;;;;5098486;28;20439;-81
2021/03/14 06:55:51;;;;;;;8.10;4.37;;;5.00;97.30;;;;;;5077699;28;20471;-81
2021/03/14 06:58:32;;;;;;;9.03;3.97;;;5.10;97.30;;;;;;5077383;28;20439;-81
2021/03/14 07:01:18;;;;;;;5.90;3.93;;;5.10;97.30;;;;;;5076310;28;20912;-81
2021/03/14 07:03:50;;;;;;;7.47;4.63;;;5.20;97.30;;;;;;5076734;28;20438;-81
2021/03/14 07:06:22;;;;;;;8.17;4.30;;;5.20;97.30;;;;;;5078469;28;20409;-81
2021/03/14 07:08:51;;;;;;;9.87;3.97;;;5.20;97.30;;;;;;5075469;28;20431;-82
2021/03/14 07:11:36;;;;;;;6.10;3.87;;;5.30;97.30;;;;;;5078053;28;20424;-79
2021/03/14 07:14:04;;;;;;;6.50;4.43;;;5.30;97.30;;;;;;5077201;28;20431;-81
2021/03/14 07:16:46;;;;;;;5.57;4.53;;;5.30;97.30;;;;;;5078360;28;20921;-81
2021/03/14 07:19:23;;;;;;;5.77;4.03;;;5.40;97.30;;;;;;5076359;28;20408;-80
2021/03/14 07:22:01;;;;;;;7.10;4.83;;;5.40;97.30;;;;;;5075205;28;20413;-80
2021/03/14 07:24:31;;;;;;;8.10;4.90;;;5.40;97.30;;;;;;5074794;28;20413;-81
2021/03/14 07:26:57;;;;;;;8.87;5.03;;;5.50;97.30;;;;;;5096387;28;20479;-81
2021/03/14 07:29:25;;;;;;;8.07;4.40;;;5.50;97.30;;;;;;5077958;28;20481;-81
2021/03/14 07:31:51;;;;;;;8.07;4.57;;;5.50;97.30;;;;;;5096432;28;20412;-81
2021/03/14 07:34:17;;;;;;;6.93;4.67;;;5.60;97.30;;;;;;5077181;28;20419;-81
2021/03/14 07:36:45;;;;;;;7.87;4.70;;;5.60;97.30;;;;;;5095683;28;20561;-80
2021/03/14 07:39:11;;;;;;;6.30;3.93;;;5.60;97.30;;;;;;5095262;28;20912;-81
2021/03/14 07:41:37;;;;;;;9.00;4.53;;;5.60;97.30;;;;;;5077297;28;20417;-80
2021/03/14 07:44:05;;;;;;;7.37;4.50;;;5.60;97.30;;;;;;5077544;28;20426;-81
2021/03/14 07:46:32;;;;;;;8.37;4.67;;;5.60;97.30;;;;;;5077464;28;20928;-81
2021/03/14 07:49:00;;;;;;;10.40;4.10;;;5.60;97.30;;;;;;5077706;28;20486;-82
2021/03/14 07:51:28;;;;;;;11.80;5.63;;;5.60;97.30;;;;;;5075307;28;20420;-82
2021/03/14 07:53:58;;;;;;;8.50;4.10;;;5.60;97.30;;;;;;5078112;28;20420;-81
2021/03/14 07:56:29;;;;;;;6.37;4.33;;;5.70;97.30;;;;;;5078528;28;20452;-81
2021/03/14 07:58:55;;;;;;;8.50;4.00;;;5.70;97.30;;;;;;5091102;28;20408;-81
2021/03/14 08:01:27;;;;;;;9.13;5.73;;;5.60;97.30;;;;;;5073788;28;20788;-81
2021/03/14 08:03:53;;;;;;;6.43;4.80;;;5.60;97.30;;;;;;5083168;28;20412;-82
2021/03/14 08:06:44;;;;;;;8.37;5.50;;;5.60;97.30;;;;;;5083152;28;20495;-81
2021/03/14 08:09:10;;;;;;;8.20;5.30;;;5.60;97.30;;;;;;5080953;28;20408;-81
2021/03/14 08:11:36;;;;;;;9.90;5.47;;;5.70;97.30;;;;;;5082304;28;20424;-81
2021/03/14 08:14:02;;;;;;;8.93;5.50;;;5.70;97.30;;;;;;5081988;28;20784;-81
2021/03/14 08:16:28;;;;;;;8.20;5.17;;;5.70;97.30;;;;;;5081769;28;20248;-81
2021/03/14 08:18:54;;;;;;;9.57;5.07;;;5.70;97.30;;;;;;5077679;28;20870;-80
2021/03/14 08:21:20;;;;;;;5.83;4.43;;;5.70;97.30;;;;;;5080137;28;20558;-80
2021/03/14 08:23:51;;;;;;;10.53;5.57;;;5.60;97.30;;;;;;5096693;28;20404;-81
2021/03/14 08:26:26;;;;;;;6.93;4.50;;;5.60;97.30;;;;;;5081354;28;20206;-81
2021/03/14 08:28:54;;;;;;;11.07;7.57;;;5.60;97.30;;;;;;5078902;28;20839;-81
2021/03/14 08:31:39;;;;;;;14.30;7.77;;;5.60;97.30;;;;;;5099159;28;20404;-81
2021/03/14 08:34:34;;;;;;;10.07;5.77;;;5.60;97.30;;;;;;5079869;28;20404;-80
2021/03/14 08:37:00;;;;;;;8.83;4.77;;;5.70;97.30;;;;;;5050065;28;20484;-80
2021/03/14 08:39:30;;;;;;;11.07;4.70;;;5.70;97.30;;;;;;5080440;28;20411;-80
2021/03/14 08:41:58;;;;;;;6.83;4.80;;;5.80;97.30;;;;;;5077685;28;20170;-81
2021/03/14 08:44:41;;;;;;;7.10;4.40;;;5.80;97.30;;;;;;5082534;28;20411;-82
2021/03/14 08:47:08;;;;;;;8.67;4.90;;;5.90;97.30;;;;;;5080516;28;20428;-80
2021/03/14 08:49:36;;;;;;;10.67;4.60;;;6.00;97.30;;;;;;5079767;28;20397;-80
2021/03/14 08:52:04;;;;;;;8.63;5.07;;;6.00;97.30;;;;;;5081261;28;20405;-81
2021/03/14 08:54:49;;;;;;;4.77;3.90;;;6.00;97.30;;;;;;5081874;28;20886;-82
2021/03/14 08:57:17;;;;;;;10.37;4.73;;;6.00;97.30;;;;;;5075494;28;20466;-80
2021/03/14 08:59:46;;;;;;;11.50;5.10;;;6.00;97.30;;;;;;5097359;28;20423;-80
2021/03/14 09:02:39;;;;;;;10.17;4.80;;;6.00;97.30;;;;;;5081019;28;20940;-80
2021/03/14 09:05:15;;;;;;;10.63;4.90;;;6.00;97.30;;;;;;5076244;28;20480;-79
2021/03/14 09:07:42;;;;;;;9.17;4.67;;;6.00;97.30;;;;;;5077061;28;20486;-81
2021/03/14 09:10:13;;;;;;;12.77;4.83;;;6.00;97.30;;;;;;5079371;28;20421;-81
2021/03/14 09:12:40;;;;;;;8.63;4.63;;;6.00;97.30;;;;;;5076313;28;20461;-80
2021/03/14 09:15:09;;;;;;;7.57;5.40;;;6.00;97.30;;;;;;5078847;28;20567;-81
2021/03/14 09:17:43;;;;;;;8.73;4.90;;;6.10;97.30;;;;;;5072637;28;20436;-81
2021/03/14 09:20:09;;;;;;;6.93;5.00;;;6.10;97.30;;;;;;5086661;28;20432;-79
2021/03/14 09:22:39;;;;;;;8.47;4.93;;;6.10;97.30;;;;;;5099124;28;20408;-81
2021/03/14 09:25:07;;;;;;;11.80;5.37;;;6.20;97.30;;;;;;5097738;28;20412;-80
2021/03/14 09:27:37;;;;;;;12.97;5.73;;;6.20;97.30;;;;;;5096535;28;20528;-80
2021/03/14 09:30:09;;;;;;;8.00;4.70;;;6.20;97.30;;;;;;5097504;28;20448;-80
2021/03/14 09:32:35;;;;;;;9.53;4.20;;;6.20;97.30;;;;;;5096123;28;20408;-80
2021/03/14 09:35:21;;;;;;;12.33;5.60;;;6.20;97.30;;;;;;5096579;28;20440;-80
2021/03/14 09:38:15;;;;;;;9.07;4.13;;;6.20;97.30;;;;;;5097807;28;20509;-80
2021/03/14 09:40:45;;;;;;;13.57;5.10;;;6.30;97.30;;;;;;5095148;28;20412;-80
2021/03/14 09:43:25;;;;;;;7.17;4.03;;;6.40;97.30;;;;;;5115658;22;20493;-72
2021/03/14 09:45:52;;;;;;;5.30;4.23;;;6.40;97.30;;;;;;5049251;28;20434;-73
2021/03/14 09:48:18;;;;;;;8.03;4.67;;;6.40;97.30;;;;;;5046460;28;20517;-73
2021/03/14 09:50:53;;;;;;;10.73;6.20;;;6.40;97.30;;;;;;5051327;28;20872;-75
2021/03/14 09:53:22;;;;;;;9.10;4.40;;;6.40;97.30;;;;;;5059833;28;20229;-73
2021/03/14 09:55:50;;;;;;;10.60;5.17;;;6.40;97.30;;;;;;5014517;28;20455;-74
2021/03/14 09:58:18;;;;;;;7.33;4.67;;;6.40;97.30;;;;;;5014981;28;20797;-74
2021/03/14 10:00:46;;;;;;;6.47;4.93;;;6.40;97.30;;;;;;5014558;28;20466;-74
2021/03/14 10:03:15;;;;;;;10.00;6.07;;;6.40;97.30;;;;;;5032946;28;20963;-75
2021/03/14 10:05:52;;;;;;;12.60;5.60;;;6.40;97.30;;;;;;5015143;28;20695;-75
2021/03/14 10:08:21;;;;;;;12.13;6.33;;;6.40;97.30;;;;;;5025608;28;20467;-75
2021/03/14 10:10:52;;;;;;;8.37;6.03;;;6.40;97.30;;;;;;5033885;28;20742;-74
2021/03/14 10:13:20;;;;;;;11.03;5.30;;;6.50;97.30;;;;;;5034348;28;20414;-75
2021/03/14 10:15:49;;;;;;;12.10;5.50;;;6.50;97.30;;;;;;5051727;28;20454;-77
2021/03/14 10:18:18;;;;;;;10.20;5.80;;;6.50;97.30;;;;;;5033733;28;20413;-76
2021/03/14 10:20:44;;;;;;;9.73;5.60;;;6.50;97.30;;;;;;5033546;28;20510;-75
2021/03/14 10:23:10;;;;;;;8.53;5.67;;;6.50;97.30;;;;;;5028150;28;20501;-78
2021/03/14 10:25:38;;;;;;;11.80;7.23;;;6.50;97.30;;;;;;5029185;28;20426;-76
2021/03/14 10:28:10;;;;;;;9.10;5.03;;;6.40;97.30;;;;;;5018616;28;20657;-75
2021/03/14 10:30:37;;;;;;;13.40;5.17;;;6.40;97.30;;;;;;5023899;28;20985;-74
2021/03/14 10:33:04;;;;;;;11.23;5.90;;;6.40;97.30;;;;;;5048443;28;20418;-74
2021/03/14 10:35:31;;;;;;;9.60;5.70;;;6.50;97.30;;;;;;5033612;28;20453;-75
2021/03/14 10:37:56;;;;;;;8.27;5.10;;;6.60;97.30;;;;;;5051587;28;20442;-75
2021/03/14 10:40:25;;;;;;;12.03;5.97;;;6.60;97.30;;;;;;5033070;28;20446;-75
2021/03/14 10:42:52;;;;;;;11.50;6.10;;;6.70;97.30;;;;;;5033046;28;20267;-73
2021/03/14 10:45:23;;;;;;;8.07;5.30;;;6.80;97.30;;;;;;5050940;28;20410;-75
2021/03/14 10:48:03;;;;;;;10.50;6.17;;;6.80;97.30;;;;;;5051017;28;20421;-74
2021/03/14 10:50:30;;;;;;;10.73;5.43;;;6.80;97.30;;;;;;5032507;28;20402;-75
2021/03/14 10:53:06;;;;;;;7.63;5.33;;;6.90;97.30;;;;;;5025331;28;20848;-75
2021/03/14 10:55:32;;;;;;;10.40;5.23;;;6.90;97.30;;;;;;5013765;28;20459;-75
2021/03/14 10:58:05;;;;;;;9.20;6.30;;;7.00;97.30;;;;;;5013941;28;21018;-74
2021/03/14 11:00:31;;;;;;;11.80;5.80;;;7.10;97.30;;;;;;5013364;28;20419;-74
2021/03/14 11:02:59;;;;;;;9.93;4.60;;;7.10;97.30;;;;;;5022580;28;21007;-74
2021/03/14 11:05:25;;;;;;;8.23;4.50;;;7.20;97.30;;;;;;5032830;28;20951;-74
2021/03/14 11:08:01;;;;;;;10.60;4.80;;;7.30;97.30;;;;;;5051172;28;20407;-74
2021/03/14 11:10:29;;;;;;;9.93;5.33;;;7.30;97.30;;;;;;5032861;28;20267;-73
2021/03/14 11:12:56;;;;;;;15.57;5.60;;;7.40;97.30;;;;;;5033284;28;20438;-75
2021/03/14 11:15:23;;;;;;;7.00;4.90;;;7.50;97.30;;;;;;5051378;28;20540;-77
2021/03/14 11:17:50;;;;;;;14.03;5.93;;;7.50;97.30;;;;;;5033361;28;20818;-75
2021/03/14 11:20:18;;;;;;;8.73;5.13;;;7.50;97.30;;;;;;5051239;28;20917;-76
2021/03/14 11:22:48;;;;;;;8.80;6.27;;;7.70;97.30;;;;;;5033166;28;20947;-75
2021/03/14 11:25:14;;;;;;;8.77;5.37;;;7.80;97.30;;;;;;5033712;28;20502;-75
2021/03/14 11:27:40;;;;;;;10.90;6.10;;;7.80;97.30;;;;;;5033512;28;21270;-77
2021/03/14 11:30:06;;;;;;;16.70;6.67;;;7.70;97.30;;;;;;5033949;28;20175;-75
2021/03/14 11:32:32;;;;;;;11.00;6.23;;;7.70;97.30;;;;;;5033854;28;20210;-75
2021/03/14 11:34:57;;;;;;;11.40;6.23;;;7.70;97.30;;;;;;5059608;28;20446;-76
2021/03/14 11:37:23;;;;;;;8.97;5.80;;;7.60;97.30;;;;;;5063782;28;20161;-76
2021/03/14 11:39:49;;;;;;;12.20;5.40;;;7.60;97.30;;;;;;5038412;28;20622;-75
2021/03/14 11:42:14;;;;;;;19.77;5.97;;;7.50;97.30;;;;;;5037258;28;20577;-75
2021/03/14 11:44:40;;;;;;;8.70;5.67;;;7.50;97.30;;;;;;5055509;28;20247;-76
2021/03/14 11:47:06;;;;;;;14.60;5.43;;;7.60;97.30;;;;;;5038275;28;20176;-75
2021/03/14 11:49:32;;;;;;;11.00;5.40;;;7.60;97.30;;;;;;5037537;28;20172;-76
2021/03/14 11:51:57;;;;;;;9.13;5.40;;;7.60;96.40;;;;;;5037275;28;20688;-74
2021/03/14 11:54:23;;;;;;;14.90;5.77;;;7.60;96.60;;;;;;5035380;28;20638;-76
2021/03/14 11:56:50;;;;;;;5.47;4.13;;;7.60;96.80;;;;;;5036871;28;20692;-75
2021/03/14 11:59:16;;;;;;;9.00;5.10;;;7.70;96.70;;;;;;5054890;28;20178;-74
2021/03/14 12:01:43;;;;;;;7.60;5.00;;;7.80;96.40;;;;;;5036418;28;20442;-74
2021/03/14 12:04:10;;;;;;;12.53;6.07;;;7.70;95.70;;;;;;5054972;28;20819;-75
2021/03/14 12:06:35;;;;;;;13.73;5.87;;;7.70;95.90;;;;;;5036674;28;20517;-74
2021/03/14 12:09:03;;;;;;;8.20;4.87;;;7.60;95.80;;;;;;5035007;28;20501;-73
2021/03/14 12:11:29;;;;;;;15.73;5.77;;;7.70;96.10;;;;;;5035523;28;20238;-75
2021/03/14 12:13:55;;;;;;;8.37;5.40;;;7.90;96.80;;;;;;5054311;28;20438;-75
2021/03/14 12:16:21;;;;;;;10.77;5.77;;;8.10;96.40;;;;;;5035982;28;20611;-74
2021/03/14 12:18:46;;;;;;;10.33;5.40;;;8.40;96.00;;;;;;5036181;28;20175;-75
2021/03/14 12:21:13;;;;;;;12.63;4.73;;;8.30;94.90;;;;;;5035948;28;20283;-75
2021/03/14 12:23:38;;;;;;;8.63;5.00;;;8.40;95.60;;;;;;5035751;28;20203;-74
2021/03/14 12:26:04;;;;;;;10.43;6.00;;;8.30;95.00;;;;;;5035799;28;20449;-74
2021/03/14 12:28:31;;;;;;;7.87;4.70;;;8.40;95.80;;;;;;5053553;28;20179;-74
2021/03/14 12:30:58;;;;;;;8.47;4.90;;;8.40;95.40;;;;;;5035581;28;20974;-74
2021/03/14 12:33:24;;;;;;;7.07;3.00;;;8.40;95.90;;;;;;5053508;28;20437;-75
2021/03/14 12:35:50;;;;;;;7.83;4.00;;;8.30;95.10;;;;;;5053581;28;20468;-75
2021/03/14 12:38:17;;;;;;;9.63;4.47;;;8.20;96.00;;;;;;5035596;28;20411;-75
2021/03/14 12:40:46;;;;;;;8.10;3.97;;;8.00;96.00;;;;;;5053112;28;20427;-74
2021/03/14 12:43:18;;;;;;;8.47;4.47;;;8.00;96.20;;;;;;5031938;28;21042;-74
2021/03/14 12:45:47;;;;;;;11.93;4.27;;;7.90;96.20;;;;;;5031915;28;20419;-74
2021/03/14 12:48:13;;;;;;;14.30;5.00;;;7.80;96.60;;;;;;5032036;28;20434;-74
2021/03/14 12:50:39;;;;;;;7.17;4.83;;;7.80;96.90;;;;;;5033337;28;20431;-74
2021/03/14 12:53:04;;;;;;;16.13;5.60;;;7.80;96.70;;;;;;5031728;28;20787;-75
2021/03/14 12:55:30;;;;;;;8.53;4.57;;;7.70;96.60;;;;;;5031981;28;20219;-74
2021/03/14 12:57:56;;;;;;;12.27;3.93;;;7.70;96.80;;;;;;5033181;28;20210;-74
2021/03/14 13:00:22;;;;;;;12.40;4.50;;;7.60;96.90;;;;;;5031647;28;20180;-74
2021/03/14 13:02:48;;;;;;;8.80;5.30;;;7.60;96.80;;;;;;5031753;28;20723;-74
2021/03/14 13:05:15;;;;;;;9.47;4.30;;;7.60;96.80;;;;;;5031998;28;20415;-74
2021/03/14 13:07:41;;;;;;;7.90;4.33;;;7.70;96.80;;;;;;5031262;28;20415;-74
2021/03/14 13:10:09;;;;;;;14.03;4.80;;;7.80;96.60;;;;;;5031505;28;20424;-74
2021/03/14 13:12:37;;;;;;;12.70;4.70;;;7.80;96.50;;;;;;5031734;28;20437;-74